Terminal Aerodrome Forecast
Issued by NWS

Home | Current Version | Previous Version | Text Only | Print | Product List | Glossary On
Versions: 1 2 3 4 5 6 7 8 9 10 11 12 13 14 15
461
FTUS41 KPHI 260535
TAFPNE
TAF
KPNE 260535Z 2606/2706 24006KT P6SM SCT250
     FM261400 22008KT P6SM SCT250
     FM270500 18003KT P6SM OVC080=

USA.gov is the U.S. government's official web portal to all federal, state and local government web resources and services.